Time;durP1;ratioP1;P1;durP2;ratioP2;P2;SDS_P1;SDS_P2;PMS_P1;PMS_P2;Temp;Humidity;BMP_temperature;BMP_pressure;BME280_temperature;BME280_humidity;BME280_pressure;Samples;Min_cycle;Max_cycle;Signal;HPM_P1;HPM_P2
2022/08/18 00:00:32;;;;;;;56.42;44.40;;;;;;;17.47;100.00;101128.50;5050811;28;20025;-67
2022/08/18 00:03:02;;;;;;;56.65;44.13;;;;;;;17.48;100.00;101130.25;5047197;28;20104;-67
2022/08/18 00:05:27;;;;;;;56.05;42.67;;;;;;;17.52;100.00;101122.16;5050433;28;20032;-67
2022/08/18 00:07:53;;;;;;;56.10;43.25;;;;;;;17.56;100.00;101134.53;5048129;28;20388;-67
2022/08/18 00:10:18;;;;;;;58.90;45.15;;;;;;;17.59;100.00;101141.59;5049242;28;20079;-67
2022/08/18 00:12:44;;;;;;;56.22;44.42;;;;;;;17.62;100.00;101144.22;5049198;28;20021;-67
2022/08/18 00:15:12;;;;;;;56.50;43.30;;;;;;;17.66;100.00;101150.38;5047886;28;20539;-67
2022/08/18 00:17:38;;;;;;;55.58;44.33;;;;;;;17.70;100.00;101144.06;5049543;28;20025;-67
2022/08/18 00:20:07;;;;;;;56.90;44.00;;;;;;;17.71;100.00;101144.03;5047517;28;20423;-67
2022/08/18 00:22:33;;;;;;;57.92;45.45;;;;;;;17.72;100.00;101142.22;5050422;28;20484;-66
2022/08/18 00:24:58;;;;;;;56.28;43.65;;;;;;;17.76;100.00;101142.13;5042971;28;20068;-66
2022/08/18 00:27:27;;;;;;;53.90;42.95;;;;;;;17.78;100.00;101143.00;5050223;28;20025;-66
2022/08/18 00:29:54;;;;;;;55.63;44.20;;;;;;;17.74;100.00;101149.31;5048053;28;20025;-65
2022/08/18 00:32:23;;;;;;;55.50;44.03;;;;;;;17.78;100.00;101152.81;5049530;28;20026;-65
2022/08/18 00:34:48;;;;;;;55.83;43.15;;;;;;;17.78;100.00;101158.16;5048206;28;20083;-66
2022/08/18 00:37:13;;;;;;;54.50;43.42;;;;;;;17.80;100.00;101159.00;5048389;28;20041;-66
2022/08/18 00:39:39;;;;;;;54.58;43.10;;;;;;;17.80;100.00;101156.31;5048579;28;20037;-67
2022/08/18 00:42:19;;;;;;;54.90;43.35;;;;;;;17.83;100.00;101158.06;5047259;28;20030;-59
2022/08/18 00:44:45;;;;;;;54.67;43.72;;;;;;;17.84;100.00;101166.06;5048810;28;20024;-59
2022/08/18 00:47:10;;;;;;;56.10;44.50;;;;;;;17.83;100.00;101168.75;5047237;28;20085;-60
2022/08/18 00:49:39;;;;;;;55.53;44.20;;;;;;;17.84;100.00;101181.19;5049998;28;20036;-59
2022/08/18 00:52:05;;;;;;;54.20;43.67;;;;;;;17.80;100.00;101169.69;5047227;28;20251;-60
2022/08/18 00:54:32;;;;;;;56.88;43.42;;;;;;;17.77;100.00;101167.97;5050379;28;20087;-59
2022/08/18 00:57:01;;;;;;;54.53;43.50;;;;;;;17.68;100.00;101165.47;5044431;28;20420;-59
2022/08/18 00:59:54;;;;;;;50.38;41.80;;;;;;;17.61;100.00;101153.16;5047204;28;20017;-59
2022/08/18 01:02:28;;;;;;;55.63;42.88;;;;;;;17.56;100.00;101163.03;5013187;28;20038;-59
2022/08/18 01:05:00;;;;;;;55.38;42.75;;;;;;;17.49;100.00;101158.72;5013436;28;20046;-59
2022/08/18 01:07:39;;;;;;;52.95;42.58;;;;;;;17.42;100.00;101163.31;5013369;28;20045;-60
2022/08/18 01:10:05;;;;;;;56.72;42.85;;;;;;;17.35;100.00;101162.53;5006656;28;20508;-61
2022/08/18 01:12:31;;;;;;;56.45;43.10;;;;;;;17.24;100.00;101159.19;5013029;28;20026;-65
2022/08/18 01:14:57;;;;;;;56.85;43.88;;;;;;;17.22;100.00;101161.00;5013232;28;20032;-66
2022/08/18 01:23:16;;;;;;;56.78;43.35;;;;;;;17.12;100.00;101154.06;4974362;28;20116;-62
2022/08/18 01:25:58;;;;;;;55.60;42.78;;;;;;;17.07;100.00;101149.69;4973837;28;20085;-59
2022/08/18 01:28:25;;;;;;;53.58;42.35;;;;;;;17.05;100.00;101153.28;4973863;28;20426;-59
2022/08/18 01:30:56;;;;;;;55.05;42.58;;;;;;;17.02;100.00;101150.69;4973637;28;20035;-59
2022/08/18 01:33:25;;;;;;;54.42;43.10;;;;;;;16.97;100.00;101155.25;4973839;28;20039;-60
2022/08/18 01:35:52;;;;;;;52.75;41.60;;;;;;;16.91;100.00;101153.56;4973780;28;20031;-59
2022/08/18 01:38:19;;;;;;;52.28;40.83;;;;;;;16.90;100.00;101159.78;4973600;28;20088;-67
2022/08/18 01:40:46;;;;;;;56.70;42.70;;;;;;;16.91;100.00;101164.22;4983191;28;20051;-67
2022/08/18 01:43:13;;;;;;;54.58;42.22;;;;;;;16.89;100.00;101158.00;4984101;28;20042;-65
2022/08/18 01:45:40;;;;;;;55.55;41.90;;;;;;;16.86;100.00;101161.59;4981949;28;20138;-67
2022/08/18 01:48:05;;;;;;;55.80;43.08;;;;;;;16.84;100.00;101151.84;4984585;28;20041;-66
2022/08/18 01:50:35;;;;;;;54.47;42.22;;;;;;;16.84;100.00;101154.53;4981844;28;20030;-67
2022/08/18 01:53:04;;;;;;;55.65;42.47;;;;;;;16.83;100.00;101147.41;4984907;28;20066;-66
2022/08/18 01:55:32;;;;;;;53.38;41.25;;;;;;;16.81;100.00;101154.59;4997885;28;20508;-66
2022/08/18 01:57:57;;;;;;;54.92;41.42;;;;;;;16.78;100.00;101138.63;5045865;28;20025;-67
2022/08/18 02:00:24;;;;;;;53.42;40.60;;;;;;;16.77;100.00;101142.19;5043563;28;20043;-66
2022/08/18 02:02:50;;;;;;;54.28;41.33;;;;;;;16.74;100.00;101149.31;5044299;28;20022;-66
2022/08/18 02:05:23;;;;;;;53.60;41.22;;;;;;;16.66;100.00;101143.25;5044383;28;20032;-66
2022/08/18 02:07:48;;;;;;;53.55;41.20;;;;;;;16.66;100.00;101140.56;5044151;28;20026;-66
2022/08/18 02:10:14;;;;;;;53.33;40.78;;;;;;;16.63;100.00;101135.28;5044751;28;20111;-65
2022/08/18 02:12:40;;;;;;;55.53;42.05;;;;;;;16.59;100.00;101138.91;5043229;28;20021;-67
2022/08/18 02:15:06;;;;;;;54.17;39.97;;;;;;;16.54;100.00;101139.00;5045453;28;20031;-67
2022/08/18 02:17:37;;;;;;;55.65;42.08;;;;;;;16.51;100.00;101147.03;5041996;28;20090;-66
2022/08/18 02:20:03;;;;;;;53.40;40.97;;;;;;;16.49;100.00;101143.50;5038748;28;20060;-59
2022/08/18 02:22:28;;;;;;;55.17;42.28;;;;;;;16.49;100.00;101151.50;5045098;28;20020;-59
2022/08/18 02:24:56;;;;;;;54.22;40.78;;;;;;;16.44;100.00;101149.81;5042945;28;20087;-60
2022/08/18 02:27:21;;;;;;;57.65;43.33;;;;;;;16.48;100.00;101148.88;5044412;28;20414;-59
2022/08/18 02:29:46;;;;;;;51.95;39.75;;;;;;;16.40;100.00;101151.66;5043882;28;20029;-60
2022/08/18 02:32:12;;;;;;;52.45;40.05;;;;;;;16.38;100.00;101151.69;5042599;28;20549;-59
2022/08/18 02:34:37;;;;;;;54.55;41.70;;;;;;;16.40;100.00;101151.66;5045054;28;20055;-59
2022/08/18 02:37:03;;;;;;;56.50;42.58;;;;;;;16.36;100.00;101152.59;5041704;28;20053;-60
2022/08/18 02:39:29;;;;;;;55.75;42.30;;;;;;;16.32;100.00;101151.75;5044873;28;20082;-59
2022/08/18 02:41:54;;;;;;;52.28;40.78;;;;;;;16.24;100.00;101151.00;5042438;28;20029;-59
2022/08/18 02:44:20;;;;;;;56.13;41.42;;;;;;;16.22;100.00;101158.13;5043669;28;20036;-59
2022/08/18 02:46:50;;;;;;;58.25;42.78;;;;;;;16.23;100.00;101161.69;5043464;28;20376;-60
2022/08/18 02:49:15;;;;;;;57.58;42.03;;;;;;;16.18;100.00;101159.97;5043024;28;20108;-60
2022/08/18 02:51:43;;;;;;;58.20;42.17;;;;;;;16.15;100.00;101169.78;5044387;28;20107;-59
2022/08/18 02:54:10;;;;;;;61.72;43.30;;;;;;;16.14;100.00;101162.69;5041852;28;20033;-59
2022/08/18 02:56:35;;;;;;;64.90;44.92;;;;;;;16.10;100.00;101160.97;5044821;28;20484;-60
2022/08/18 02:59:05;;;;;;;60.25;43.08;;;;;;;16.06;100.00;101164.56;5041337;28;20033;-59
2022/08/18 03:01:38;;;;;;;57.92;42.45;;;;;;;16.06;100.00;101156.56;5037249;28;20380;-60
2022/08/18 03:04:06;;;;;;;51.05;38.83;;;;;;;15.93;100.00;101159.41;5037893;28;20461;-59
2022/08/18 03:06:34;;;;;;;53.75;40.47;;;;;;;15.94;100.00;101150.50;5037237;28;20071;-59
2022/08/18 03:09:00;;;;;;;52.65;40.70;;;;;;;15.95;100.00;101154.94;5044439;28;20028;-59
2022/08/18 03:11:27;;;;;;;57.90;41.63;;;;;;;16.00;100.00;101152.19;5041973;28;20033;-60
2022/08/18 03:13:55;;;;;;;49.70;38.53;;;;;;;15.91;100.00;101150.53;5043744;28;20035;-59
2022/08/18 03:16:22;;;;;;;49.13;37.67;;;;;;;15.92;100.00;101149.66;5042718;28;20021;-59
2022/08/18 03:18:47;;;;;;;49.22;36.67;;;;;;;15.93;100.00;101154.09;5042669;28;20453;-60
2022/08/18 03:21:16;;;;;;;51.97;39.50;;;;;;;15.91;100.00;101161.22;5042723;28;20040;-59
2022/08/18 03:23:42;;;;;;;48.88;38.20;;;;;;;15.81;100.00;101155.13;5041686;28;20049;-60
2022/08/18 03:26:10;;;;;;;47.47;37.00;;;;;;;15.76;100.00;101174.72;5044439;28;20043;-60
2022/08/18 03:28:44;;;;;;;47.65;36.22;;;;;;;15.72;100.00;101171.19;5041044;28;20018;-59
2022/08/18 03:31:13;;;;;;;50.72;38.83;;;;;;;15.77;100.00;101171.13;5043814;28;20040;-62
2022/08/18 03:33:40;;;;;;;49.17;37.83;;;;;;;15.73;100.00;101178.28;5041463;28;20053;-67
2022/08/18 03:36:09;;;;;;;53.05;38.75;;;;;;;15.73;100.00;101172.06;5044483;28;20025;-66
2022/08/18 03:38:34;;;;;;;52.75;38.30;;;;;;;15.71;100.00;101168.53;5040945;28;20033;-67
2022/08/18 03:41:00;;;;;;;54.58;40.90;;;;;;;15.68;100.00;101175.69;5043832;28;20029;-66
2022/08/18 03:43:25;;;;;;;48.83;37.10;;;;;;;15.61;100.00;101181.06;5041492;28;20064;-67
2022/08/18 03:45:53;;;;;;;48.75;36.10;;;;;;;15.53;100.00;101181.16;5042625;28;20041;-66
2022/08/18 03:48:19;;;;;;;56.85;40.08;;;;;;;15.63;100.00;101180.16;5042483;28;20045;-65
2022/08/18 03:50:46;;;;;;;49.50;36.70;;;;;;;15.54;100.00;101188.28;5042054;28;20036;-67
2022/08/18 03:53:11;;;;;;;48.60;37.05;;;;;;;15.54;100.00;101180.28;5043202;28;20501;-62
2022/08/18 03:55:39;;;;;;;47.05;35.13;;;;;;;15.53;100.00;101186.50;5040594;28;20026;-66
2022/08/18 03:58:05;;;;;;;45.80;35.28;;;;;;;15.51;100.00;101181.19;5044196;28;20040;-64
2022/08/18 04:00:32;;;;;;;47.40;36.17;;;;;;;15.58;100.00;101179.34;5039549;28;20033;-65
2022/08/18 04:03:01;;;;;;;47.67;35.00;;;;;;;15.56;100.00;101175.81;5043385;28;20467;-66
2022/08/18 04:05:27;;;;;;;43.28;33.15;;;;;;;15.57;100.00;101169.59;5041155;28;20036;-66
2022/08/18 04:07:53;;;;;;;45.40;33.47;;;;;;;15.59;100.00;101177.56;5043181;28;20075;-66
2022/08/18 04:10:19;;;;;;;42.70;33.53;;;;;;;15.72;100.00;101172.97;5042412;28;20029;-65
2022/08/18 04:12:44;;;;;;;51.30;38.53;;;;;;;15.83;100.00;101168.44;5041755;28;20044;-67
2022/08/18 04:15:10;;;;;;;53.72;39.03;;;;;;;15.90;100.00;101163.88;5043537;28;20025;-67
2022/08/18 04:17:36;;;;;;;52.85;39.15;;;;;;;15.94;100.00;101166.50;5040541;28;20034;-66
2022/08/18 04:20:01;;;;;;;55.35;41.00;;;;;;;16.02;100.00;101167.28;5036592;28;20457;-66
2022/08/18 04:22:26;;;;;;;55.72;41.53;;;;;;;16.08;100.00;101165.47;5043014;28;20039;-66
2022/08/18 04:24:52;;;;;;;61.47;43.88;;;;;;;16.20;100.00;101173.28;5041802;28;20107;-62
2022/08/18 04:27:20;;;;;;;62.72;44.65;;;;;;;16.24;100.00;101175.00;5042389;28;20112;-66
2022/08/18 04:29:46;;;;;;;63.08;44.70;;;;;;;16.25;100.00;101171.44;5042518;28;20451;-67
2022/08/18 04:32:11;;;;;;;64.78;43.92;;;;;;;16.29;100.00;101167.81;5042214;28;20052;-66
2022/08/18 04:34:36;;;;;;;63.20;45.28;;;;;;;16.38;100.00;101169.44;5047554;28;20028;-67
2022/08/18 04:37:02;;;;;;;64.13;45.17;;;;;;;16.37;100.00;101171.25;5044073;28;20072;-67
2022/08/18 04:39:28;;;;;;;64.18;45.08;;;;;;;16.41;100.00;101172.09;5047071;28;20537;-67
2022/08/18 04:41:53;;;;;;;62.08;43.65;;;;;;;16.42;100.00;101180.97;5044973;28;20029;-67
2022/08/18 04:44:20;;;;;;;62.85;43.67;;;;;;;16.43;100.00;101182.75;5045353;28;20053;-66
2022/08/18 04:46:49;;;;;;;68.93;45.47;;;;;;;16.39;100.00;101181.91;5045941;28;20076;-67
2022/08/18 04:49:17;;;;;;;61.60;44.10;;;;;;;16.41;100.00;101190.78;5045217;28;20120;-67
2022/08/18 04:54:37;;;;;;;60.20;42.45;;;;;;;16.43;100.00;101201.44;5047200;28;20094;-67
2022/08/18 04:57:21;;;;;;;;;;;;;;;16.49;100.00;101206.66;5040061;28;20017;-67
2022/08/18 04:59:49;;;;;;;62.90;42.90;;;;;;;16.43;100.00;101198.75;5043291;28;19919;-66
2022/08/18 05:02:17;;;;;;;63.97;42.97;;;;;;;16.45;100.00;101189.81;5046207;28;20422;-66
2022/08/18 05:04:45;;;;;;;62.63;41.67;;;;;;;16.44;100.00;101188.06;5044527;28;20429;-67
2022/08/18 05:07:12;;;;;;;58.83;42.47;;;;;;;16.45;100.00;101191.59;5046263;28;20025;-66
2022/08/18 05:09:38;;;;;;;61.58;41.42;;;;;;;16.43;100.00;101193.44;5043501;28;20023;-66
2022/08/18 05:12:05;;;;;;;61.80;41.17;;;;;;;16.44;100.00;101195.16;5047016;28;20079;-67
2022/08/18 05:14:32;;;;;;;58.80;40.72;;;;;;;16.45;100.00;101197.81;5043219;28;20044;-67
2022/08/18 05:17:02;;;;;;;64.00;40.95;;;;;;;16.39;100.00;101217.44;5046343;28;20486;-67
2022/08/18 05:19:29;;;;;;;58.13;40.47;;;;;;;16.42;100.00;101202.31;5043872;28;20037;-67
2022/08/18 05:21:56;;;;;;;59.58;39.53;;;;;;;16.42;100.00;101205.00;5045393;28;20036;-66
2022/08/18 05:24:24;;;;;;;70.03;40.47;;;;;;;16.36;100.00;101201.50;5044674;28;20383;-66
2022/08/18 05:26:51;;;;;;;61.05;40.45;;;;;;;16.36;100.00;101201.50;5044644;28;20048;-67
2022/08/18 05:29:17;;;;;;;61.55;40.17;;;;;;;16.42;100.00;101202.31;5045391;28;20068;-67
2022/08/18 05:31:43;;;;;;;60.58;40.67;;;;;;;16.50;100.00;101208.44;5044310;28;20032;-66
2022/08/18 05:34:08;;;;;;;59.65;40.42;;;;;;;16.52;100.00;101206.63;5046068;28;20044;-67
2022/08/18 05:36:52;;;;;;;59.67;40.92;;;;;;;16.52;100.00;101206.63;5043272;28;20060;-67
2022/08/18 05:39:24;;;;;;;62.47;40.38;;;;;;;16.58;100.00;101211.84;5042370;28;20358;-67
2022/08/18 05:41:54;;;;;;;60.03;38.47;;;;;;;16.62;100.00;101216.25;5044624;28;20112;-67
2022/08/18 05:44:26;;;;;;;58.30;38.92;;;;;;;16.60;100.00;101214.50;5044032;28;20473;-67
2022/08/18 05:47:05;;;;;;;53.83;40.13;;;;;;;16.70;100.00;101209.03;5044126;28;20068;-67
2022/08/18 05:49:34;;;;;;;54.08;39.03;;;;;;;16.80;100.00;101216.88;5045881;28;20065;-67
2022/08/18 05:52:03;;;;;;;51.97;37.40;;;;;;;16.71;100.00;101216.09;5042922;28;20045;-67
2022/08/18 05:57:39;;;;;;;50.28;37.53;;;;;;;16.98;100.00;101221.97;5045869;28;20029;-67
2022/08/18 06:00:08;;;;;;;51.90;37.90;;;;;;;17.11;100.00;101221.75;5038792;28;20029;-65
2022/08/18 06:02:44;;;;;;;47.78;36.22;;;;;;;17.12;100.00;101220.84;5033002;28;20473;-60
2022/08/18 06:05:15;;;;;;;48.72;35.97;;;;;;;17.11;100.00;101227.09;5039986;28;20025;-61
2022/08/18 06:07:45;;;;;;;47.95;36.45;;;;;;;17.22;100.00;101226.00;5037341;28;20021;-60
2022/08/18 06:10:12;;;;;;;47.05;35.00;;;;;;;17.22;100.00;101230.47;5032372;28;20032;-62
2022/08/18 06:12:44;;;;;;;46.67;34.47;;;;;;;17.24;100.00;101224.19;5038853;28;20018;-59
2022/08/18 06:15:17;;;;;;;50.25;35.42;;;;;;;17.32;100.00;101224.06;5029657;28;20037;-60
2022/08/18 06:17:50;;;;;;;45.50;34.35;;;;;;;17.42;100.00;101222.97;5033811;28;20025;-60
2022/08/18 06:20:49;;;;;;;47.25;34.72;;;;;;;17.51;100.00;101216.59;5029962;28;20034;-60
2022/08/18 06:23:33;;;;;;;45.70;34.03;;;;;;;17.46;100.00;101222.91;5032232;28;20042;-61
2022/08/18 06:26:17;;;;;;;47.30;35.53;;;;;;;17.66;100.00;101225.22;5032256;28;20025;-60
2022/08/18 06:29:14;;;;;;;42.60;33.28;;;;;;;17.82;100.00;101232.03;5032066;28;20057;-62
2022/08/18 06:32:04;;;;;;;41.42;32.03;;;;;;;17.89;100.00;101238.16;4980903;28;20522;-64
2022/08/18 06:34:49;;;;;;;40.20;31.52;;;;;;;17.98;100.00;101237.13;4980085;28;20039;-64
2022/08/18 06:37:22;;;;;;;42.88;31.65;;;;;;;18.09;100.00;101252.03;4976060;28;20047;-63
2022/08/18 06:39:50;;;;;;;40.80;31.83;;;;;;;18.26;100.00;101243.66;4978490;28;20035;-61
2022/08/18 06:42:20;;;;;;;39.00;29.85;;;;;;;18.45;100.00;101246.81;4966271;28;20070;-65
2022/08/18 06:44:49;;;;;;;37.60;28.20;;;;;;;18.45;100.00;101243.28;4982771;28;20031;-68
2022/08/18 06:47:53;;;;;;;37.03;28.85;;;;;;;18.59;100.00;101245.63;4980939;28;20072;-70
2022/08/18 06:50:33;;;;;;;36.97;28.80;;;;;;;18.73;100.00;101250.69;4980449;28;20104;-78
2022/08/18 06:53:03;;;;;;;39.72;30.95;;;;;;;18.65;100.00;101248.16;4981207;28;20041;-70
2022/08/18 06:55:40;;;;;;;39.75;30.20;;;;;;;18.65;100.00;101248.16;4980655;28;20030;-68
2022/08/18 06:58:29;;;;;;;37.35;28.55;;;;;;;18.79;100.00;101248.72;4981931;28;20030;-78
2022/08/18 07:00:59;;;;;;;37.63;27.95;;;;;;;18.75;100.00;101249.69;4982280;28;20057;-70
2022/08/18 07:03:34;;;;;;;36.00;28.30;;;;;;;18.77;100.00;101255.91;4978397;28;20074;-73
2022/08/18 07:06:05;;;;;;;35.83;26.73;;;;;;;18.83;100.00;101249.53;4978601;28;20042;-70
2022/08/18 07:08:41;;;;;;;38.53;29.92;;;;;;;18.90;100.00;101264.59;5000493;28;20504;-69
2022/08/18 07:11:27;;;;;;;37.78;29.20;;;;;;;18.97;100.00;101259.94;5031625;28;20480;-70
2022/08/18 07:14:11;;;;;;;37.20;28.52;;;;;;;18.87;100.00;101259.28;5031642;28;20372;-64
2022/08/18 07:16:37;;;;;;;36.50;26.83;;;;;;;18.92;100.00;101249.34;5034588;28;20025;-65
2022/08/18 07:19:29;;;;;;;35.33;26.40;;;;;;;18.91;100.00;101255.59;5032716;28;20105;-62
2022/08/18 07:22:17;;;;;;;36.25;26.33;;;;;;;18.96;100.00;101255.50;5032198;28;20032;-63
2022/08/18 07:24:45;;;;;;;34.17;25.65;;;;;;;19.05;100.00;101262.47;5032500;28;20070;-66
2022/08/18 07:27:16;;;;;;;35.45;26.30;;;;;;;19.26;100.00;101255.66;5032131;28;20024;-64
2022/08/18 07:30:13;;;;;;;34.03;24.70;;;;;;;19.44;100.00;101257.88;5032655;28;20104;-59
2022/08/18 07:32:47;;;;;;;31.33;23.65;;;;;;;19.43;100.00;101253.44;5031124;28;20472;-60
2022/08/18 07:35:18;;;;;;;33.20;24.52;;;;;;;19.54;100.00;101249.59;5034446;28;20067;-60
2022/08/18 07:37:43;;;;;;;30.23;21.05;;;;;;;19.59;100.00;101250.38;5032430;28;20021;-60
2022/08/18 07:40:20;;;;;;;31.48;23.55;;;;;;;19.76;100.00;101252.56;5034530;28;20074;-59
2022/08/18 07:43:20;;;;;;;32.58;23.85;;;;;;;19.74;100.00;101252.59;5033971;28;20078;-59
2022/08/18 07:45:46;;;;;;;32.33;23.92;;;;;;;19.46;100.00;101258.72;4999172;28;20092;-59
2022/08/18 07:48:12;;;;;;;31.38;24.05;;;;;;;19.39;100.00;101262.47;4999827;28;20087;-60
2022/08/18 07:50:47;;;;;;;30.70;22.75;;;;;;;19.38;100.00;101263.38;4998523;28;20069;-59
2022/08/18 07:53:45;;;;;;;31.50;24.33;;;;;;;19.59;100.00;101261.97;5001787;28;20026;-60
2022/08/18 07:56:23;;;;;;;32.38;22.83;;;;;;;19.72;100.00;101251.78;5001076;28;20053;-67
2022/08/18 07:59:15;;;;;;;30.40;21.45;;;;;;;19.95;100.00;101252.97;4999106;28;20037;-66
2022/08/18 08:02:03;;;;;;;28.00;20.08;;;;;;;20.11;100.00;101262.34;4997940;28;20038;-64
2022/08/18 08:04:45;;;;;;;29.38;21.15;;;;;;;20.09;100.00;101256.13;4999653;28;20066;-68
2022/08/18 08:07:14;;;;;;;33.22;24.52;;;;;;;19.83;100.00;101248.81;4999195;28;20041;-62
2022/08/18 08:10:17;;;;;;;32.85;23.52;;;;;;;19.72;100.00;101250.88;5000395;28;20465;-62
2022/08/18 08:12:55;;;;;;;30.83;22.90;;;;;;;19.68;100.00;101266.19;5002140;28;20031;-61
2022/08/18 08:15:38;;;;;;;29.60;20.98;;;;;;;20.17;100.00;101259.50;5005022;28;20030;-60
2022/08/18 08:18:17;;;;;;;28.45;19.52;;;;;;;21.05;100.00;101261.31;5003384;28;20042;-61
2022/08/18 08:20:50;;;;;;;26.38;15.43;;;;;;;21.80;100.00;101259.66;5004320;28;20104;-61
2022/08/18 08:24:01;;;;;;;24.30;13.93;;;;;;;22.76;100.00;101265.03;5029314;28;20052;-60
2022/08/18 08:26:53;;;;;;;22.75;13.23;;;;;;;23.79;100.00;101267.94;5037683;28;20034;-60
2022/08/18 08:29:37;;;;;;;22.70;12.80;;;;;;;24.33;100.00;101263.72;5045875;28;20064;-60
2022/08/18 08:32:07;;;;;;;22.20;12.82;;;;;;;24.94;100.00;101275.25;5041346;28;20473;-60
2022/08/18 08:34:44;;;;;;;23.85;13.25;;;;;;;25.57;100.00;101271.22;5047648;28;20025;-61
2022/08/18 08:37:16;;;;;;;22.23;13.18;;;;;;;25.59;100.00;101272.03;5045192;28;20095;-60
2022/08/18 08:40:00;;;;;;;23.52;13.50;;;;;;;25.09;100.00;101262.81;5045806;28;20025;-60
2022/08/18 08:42:48;;;;;;;23.17;13.45;;;;;;;25.04;100.00;101273.84;5039957;28;20443;-60
2022/08/18 08:45:24;;;;;;;23.58;14.18;;;;;;;25.00;100.00;101274.97;5043972;28;20026;-59
2022/08/18 08:48:02;;;;;;;23.10;13.07;;;;;;;24.91;100.00;101275.41;5044694;28;20446;-61
2022/08/18 08:50:33;;;;;;;21.63;12.90;;;;;;;24.83;100.00;101267.69;5040162;28;20105;-61
2022/08/18 08:53:17;;;;;;;23.15;13.45;;;;;;;24.17;100.00;101282.47;5040038;28;20087;-65
2022/08/18 08:55:49;;;;;;;22.67;14.23;;;;;;;23.43;100.00;101285.69;5043579;28;20029;-60
2022/08/18 08:58:33;;;;;;;24.13;15.85;;;;;;;23.11;100.00;101281.63;5045410;28;20033;-61
2022/08/18 09:00:59;;;;;;;24.00;16.20;;;;;;;22.56;100.00;101269.41;5040135;28;20154;-62
2022/08/18 09:03:48;;;;;;;24.67;16.30;;;;;;;22.57;100.00;101268.47;5047107;28;20025;-60
2022/08/18 09:06:35;;;;;;;24.00;15.35;;;;;;;24.23;100.00;101270.47;5043921;28;20032;-65
2022/08/18 09:09:00;;;;;;;23.02;13.95;;;;;;;25.73;100.00;101269.50;5040025;28;20035;-62
2022/08/18 09:11:33;;;;;;;22.17;13.43;;;;;;;26.55;100.00;101269.63;5047354;28;20029;-64
2022/08/18 09:14:20;;;;;;;24.27;13.35;;;;;;;27.07;100.00;101280.25;5039819;28;20025;-63
2022/08/18 09:17:07;;;;;;;22.70;13.02;;;;;;;27.60;100.00;101274.44;5044140;28;20132;-63
2022/08/18 09:19:53;;;;;;;22.33;13.00;;;;;;;27.68;100.00;101287.56;5039644;28;20029;-65
2022/08/18 09:22:33;;;;;;;21.75;12.10;;;;;;;27.04;100.00;101279.53;5044161;28;20033;-61
2022/08/18 09:24:59;;;;;;;21.42;11.75;;;;;;;26.70;100.00;101282.34;5039431;28;20051;-64
2022/08/18 09:27:43;;;;;;;20.95;11.68;;;;;;;27.34;100.00;101290.44;5046291;28;20598;-65
2022/08/18 09:30:40;;;;;;;18.80;8.68;;;;;;;28.46;96.75;101282.69;5041440;28;20598;-69
2022/08/18 09:33:44;;;;;;;19.67;8.25;;;;;;;29.39;91.80;101279.38;5040794;28;20473;-67
2022/08/18 09:36:32;;;;;;;20.10;9.77;;;;;;;29.10;87.14;101265.00;5041883;28;20480;-65
2022/08/18 09:42:26;;;;;;;19.85;9.20;;;;;;;28.32;89.48;101264.56;5043032;28;20091;-67
2022/08/18 09:44:52;;;;;;;18.27;8.20;;;;;;;27.12;89.54;101267.25;5043357;28;20554;-65
2022/08/18 09:47:20;;;;;;;17.85;7.85;;;;;;;26.07;97.63;101270.41;5041520;28;20064;-66
2022/08/18 09:49:48;;;;;;;19.73;8.57;;;;;;;25.51;100.00;101258.03;5038585;28;20590;-65
2022/08/18 09:52:20;;;;;;;19.95;9.85;;;;;;;25.17;100.00;101259.72;5045362;28;20032;-65
2022/08/18 09:54:57;;;;;;;19.52;8.98;;;;;;;24.84;100.00;101264.03;5038330;28;20368;-63
2022/08/18 09:57:26;;;;;;;20.15;9.80;;;;;;;24.58;100.00;101257.16;5039689;28;20017;-64
2022/08/18 09:59:57;;;;;;;19.90;9.55;;;;;;;24.43;100.00;101255.19;5045891;28;20082;-63
2022/08/18 10:02:25;;;;;;;19.67;9.13;;;;;;;24.22;100.00;101259.75;5042626;28;20044;-66
2022/08/18 10:05:16;;;;;;;19.35;9.30;;;;;;;24.39;100.00;101256.28;5044617;28;20094;-61
2022/08/18 10:07:52;;;;;;;20.60;9.57;;;;;;;24.45;100.00;101258.66;5045344;28;20083;-64
2022/08/18 10:10:29;;;;;;;19.27;9.35;;;;;;;25.03;100.00;101260.41;5037532;28;20021;-67
2022/08/18 10:13:12;;;;;;;19.35;8.20;;;;;;;27.58;93.82;101265.50;5040312;28;20108;-70
2022/08/18 10:16:33;;;;;;;18.80;7.75;;;;;;;29.71;88.96;101260.78;5043264;28;20021;-71
2022/08/18 10:19:28;;;;;;;18.25;7.53;;;;;;;31.76;78.95;101258.47;5019145;28;20042;-70
2022/08/18 10:22:00;;;;;;;18.10;7.43;;;;;;;32.90;52.81;101242.91;5017693;28;20605;-70
2022/08/18 10:24:35;;;;;;;19.05;7.25;;;;;;;33.82;48.12;101247.00;5022719;28;20032;-70
2022/08/18 10:27:02;;;;;;;17.13;6.72;;;;;;;34.06;41.72;101257.63;5021497;28;20385;-70
2022/08/18 10:29:28;;;;;;;17.55;7.00;;;;;;;33.04;43.16;101246.34;5022451;28;20045;-70
2022/08/18 10:31:53;;;;;;;19.02;7.53;;;;;;;31.65;45.26;101239.31;5020318;28;20029;-71
2022/08/18 10:34:44;;;;;;;17.40;7.45;;;;;;;30.38;52.18;101237.03;5023392;28;20037;-71
2022/08/18 10:37:43;;;;;;;19.85;8.00;;;;;;;29.30;55.92;101236.44;5022260;28;20033;-71
2022/08/18 10:40:08;;;;;;;18.70;8.50;;;;;;;28.06;55.76;101233.63;4934067;29;20073;-71
2022/08/18 10:42:52;;;;;;;19.25;8.50;;;;;;;27.38;60.66;101235.03;4934005;29;20138;-70
2022/08/18 10:45:27;;;;;;;20.58;8.80;;;;;;;26.65;62.23;101235.63;4930455;29;20500;-70
2022/08/18 10:48:15;;;;;;;20.20;9.60;;;;;;;26.38;65.61;101233.50;4934206;29;20058;-70
2022/08/18 10:51:00;;;;;;;19.63;9.23;;;;;;;26.19;67.20;101228.22;4934082;29;20086;-70
2022/08/18 10:53:37;;;;;;;19.60;9.77;;;;;;;26.06;66.15;101236.16;4937715;29;20078;-70
2022/08/18 10:56:09;;;;;;;19.73;9.55;;;;;;;25.95;67.72;101235.84;4943650;29;20035;-70
2022/08/18 10:58:54;;;;;;;20.42;9.27;;;;;;;25.90;67.83;101237.91;4934019;29;20078;-71
2022/08/18 11:01:23;;;;;;;20.27;9.93;;;;;;;25.74;66.97;101236.03;4945018;29;20479;-71
2022/08/18 11:04:06;;;;;;;21.38;9.82;;;;;;;25.52;68.14;101241.69;4944991;29;20518;-70
2022/08/18 11:06:46;;;;;;;19.42;9.68;;;;;;;25.50;68.90;101240.03;4942949;29;20031;-71
2022/08/18 11:09:11;;;;;;;20.02;10.65;;;;;;;25.77;67.77;101242.25;4942190;29;20035;-70
2022/08/18 11:11:42;;;;;;;20.55;10.77;;;;;;;26.02;65.72;101236.41;4943889;29;20114;-67
2022/08/18 11:14:37;;;;;;;20.58;10.85;;;;;;;26.39;66.70;101228.97;4942619;29;20034;-68
2022/08/18 11:17:40;;;;;;;20.17;10.00;;;;;;;28.29;63.98;101217.66;5041020;28;20029;-68
2022/08/18 11:20:08;;;;;;;20.50;9.48;;;;;;;31.73;48.49;101233.25;5042208;28;20061;-67
2022/08/18 11:22:36;;;;;;;20.27;9.57;;;;;;;33.24;44.97;101228.25;5042804;28;20025;-68
2022/08/18 11:25:21;;;;;;;19.80;9.30;;;;;;;34.92;41.02;101227.03;5042487;28;20037;-68
2022/08/18 11:27:47;;;;;;;20.40;9.20;;;;;;;34.04;42.20;101213.91;5036896;28;20032;-67
2022/08/18 11:30:13;;;;;;;20.98;10.43;;;;;;;32.11;43.26;101210.16;5044018;28;20090;-68
2022/08/18 11:32:40;;;;;;;19.85;9.68;;;;;;;31.01;47.19;101213.25;5042248;28;20096;-68
2022/08/18 11:35:15;;;;;;;20.20;9.93;;;;;;;30.34;49.09;101209.09;5042833;28;20373;-68
2022/08/18 11:37:40;;;;;;;19.67;10.07;;;;;;;30.14;48.59;101199.66;5041595;28;20155;-67
2022/08/18 11:40:19;;;;;;;22.60;10.50;;;;;;;29.98;50.17;101201.75;5042615;28;20108;-66
2022/08/18 11:43:13;;;;;;;19.50;10.15;;;;;;;29.98;51.18;101199.03;5041305;28;20040;-68
2022/08/18 11:45:45;;;;;;;20.27;10.38;;;;;;;29.42;51.63;101193.88;5041468;28;20045;-65